createdAt,value
2017-08-01T00:00:33.209Z,0
2017-08-01T00:01:13.554Z,0
2017-08-01T00:01:53.928Z,0
2017-08-01T00:02:34.649Z,0
2017-08-01T00:03:15.044Z,0
2017-08-01T00:03:55.358Z,0
2017-08-01T00:04:35.896Z,0
2017-08-01T00:05:16.345Z,0
2017-08-01T00:05:56.830Z,0
2017-08-01T00:06:37.224Z,0
2017-08-01T00:07:17.616Z,0
2017-08-01T00:07:58.027Z,0
2017-08-01T00:08:38.546Z,0
2017-08-01T00:09:19.225Z,0
2017-08-01T00:09:59.598Z,0
2017-08-01T00:10:39.958Z,0
2017-08-01T00:11:20.396Z,0
2017-08-01T00:12:00.772Z,0
2017-08-01T00:12:41.110Z,0
2017-08-01T00:13:21.547Z,0
2017-08-01T00:14:01.910Z,0
2017-08-01T00:14:42.404Z,0
2017-08-01T00:15:22.896Z,0
2017-08-01T00:16:03.424Z,0
2017-08-01T00:16:43.798Z,0
2017-08-01T00:17:24.409Z,0
2017-08-01T00:18:04.825Z,0
2017-08-01T00:18:45.199Z,0
2017-08-01T00:19:25.708Z,0
2017-08-01T00:20:06.237Z,0
2017-08-01T00:20:47.042Z,0
2017-08-01T00:21:27.509Z,0
2017-08-01T00:22:07.860Z,0
2017-08-01T00:22:48.504Z,0
2017-08-01T00:23:28.976Z,0
2017-08-01T00:24:09.503Z,0
2017-08-01T00:24:49.914Z,0
2017-08-01T00:25:30.229Z,0
2017-08-01T00:26:10.737Z,0
2017-08-01T00:26:51.167Z,0
2017-08-01T00:27:31.674Z,0
2017-08-01T00:28:12.076Z,0
2017-08-01T00:28:52.486Z,0
2017-08-01T00:29:32.881Z,0
2017-08-01T00:30:13.268Z,0
2017-08-01T00:30:53.748Z,0
2017-08-01T00:31:34.253Z,0
2017-08-01T00:32:14.736Z,0
2017-08-01T00:32:55.284Z,0
2017-08-01T00:33:35.580Z,0
2017-08-01T00:34:16.374Z,0
2017-08-01T00:34:56.561Z,0
2017-08-01T00:35:36.990Z,0
2017-08-01T00:36:18.111Z,0
2017-08-01T00:37:00.534Z,0
2017-08-01T00:39:45.755Z,0
2017-08-01T00:40:26.129Z,0
2017-08-01T00:41:06.540Z,0
2017-08-01T00:41:46.933Z,0
2017-08-01T00:42:27.337Z,0
2017-08-01T00:43:07.749Z,0
2017-08-01T00:43:48.138Z,0
2017-08-01T00:44:28.502Z,0
2017-08-01T00:45:09.040Z,0
2017-08-01T00:45:49.404Z,0
2017-08-01T00:46:29.846Z,0
2017-08-01T00:47:10.318Z,0
2017-08-01T00:47:50.812Z,0
2017-08-01T00:48:31.180Z,0
2017-08-01T00:49:11.564Z,0
2017-08-01T00:49:51.968Z,0
2017-08-01T00:50:32.360Z,0
2017-08-01T00:51:12.853Z,0
2017-08-01T00:51:53.227Z,0
2017-08-01T00:52:33.630Z,0
2017-08-01T00:53:14.003Z,0
2017-08-01T00:53:54.414Z,0
2017-08-01T00:54:34.942Z,0
2017-08-01T00:55:15.239Z,0
2017-08-01T00:55:55.623Z,0
2017-08-01T00:56:36.135Z,0
2017-08-01T00:57:16.489Z,0
2017-08-01T00:57:56.859Z,0
2017-08-01T00:58:37.277Z,0
2017-08-01T00:59:17.689Z,0
2017-08-01T00:59:58.154Z,0
2017-08-01T01:00:38.600Z,0
2017-08-01T01:01:19.002Z,0
2017-08-01T01:01:59.360Z,0
2017-08-01T01:02:39.800Z,0
2017-08-01T01:03:20.302Z,0
2017-08-01T01:04:00.678Z,0
2017-08-01T01:06:40.808Z,0
2017-08-01T01:07:21.174Z,0
2017-08-01T01:08:01.556Z,0
2017-08-01T01:08:42.036Z,0
2017-08-01T01:09:22.482Z,0
2017-08-01T01:10:02.795Z,0
2017-08-01T01:10:43.275Z,0
2017-08-01T01:11:23.706Z,0
2017-08-01T01:12:04.044Z,0
2017-08-01T01:12:44.465Z,0
2017-08-01T01:13:24.849Z,0
2017-08-01T01:14:05.311Z,0
2017-08-01T01:14:45.681Z,0
2017-08-01T01:15:26.067Z,0
2017-08-01T01:16:06.475Z,0
2017-08-01T01:16:46.925Z,0
2017-08-01T01:17:27.271Z,0
2017-08-01T01:18:07.658Z,0
2017-08-01T01:18:48.054Z,0
2017-08-01T01:19:28.431Z,0
2017-08-01T01:20:08.895Z,0
2017-08-01T01:20:49.347Z,0
2017-08-01T01:21:29.749Z,0
2017-08-01T01:22:10.143Z,0
2017-08-01T01:22:50.574Z,0
2017-08-01T01:23:31.011Z,0
2017-08-01T01:24:11.410Z,0
2017-08-01T01:24:51.827Z,0
2017-08-01T01:25:32.392Z,0
2017-08-01T01:26:12.838Z,0
2017-08-01T01:26:53.236Z,0
2017-08-01T01:27:33.876Z,0
2017-08-01T01:28:14.222Z,0
2017-08-01T01:28:54.671Z,0
2017-08-01T01:29:35.038Z,0
2017-08-01T01:30:15.479Z,0
2017-08-01T01:30:55.871Z,0
2017-08-01T01:31:36.518Z,0
2017-08-01T01:32:16.999Z,0
2017-08-01T01:32:57.484Z,0
2017-08-01T01:33:37.834Z,0
2017-08-01T01:34:18.296Z,0
2017-08-01T01:34:58.696Z,0
2017-08-01T01:35:39.187Z,0
2017-08-01T01:36:19.517Z,0
2017-08-01T01:36:59.921Z,0
2017-08-01T01:37:40.456Z,0
2017-08-01T01:38:20.843Z,0
2017-08-01T01:39:01.305Z,0
2017-08-01T01:39:41.715Z,0
2017-08-01T01:40:22.113Z,0
2017-08-01T01:41:02.486Z,0
2017-08-01T01:41:42.866Z,0
2017-08-01T01:42:23.250Z,0
2017-08-01T01:43:03.670Z,0
2017-08-01T01:43:44.068Z,0
2017-08-01T01:44:24.464Z,0
2017-08-01T01:45:04.871Z,0
2017-08-01T01:45:45.280Z,0
2017-08-01T01:46:25.673Z,0
2017-08-01T01:47:06.072Z,0
2017-08-01T01:49:43.860Z,0
2017-08-01T01:50:24.247Z,0
2017-08-01T01:51:04.698Z,0
2017-08-01T01:51:45.093Z,0
2017-08-01T01:52:25.578Z,0
2017-08-01T01:53:05.913Z,0
2017-08-01T01:53:46.300Z,0
2017-08-01T01:54:26.699Z,0
2017-08-01T01:55:07.096Z,0
2017-08-01T01:55:47.507Z,0
2017-08-01T01:56:27.880Z,0
2017-08-01T01:57:08.292Z,0
2017-08-01T01:57:48.717Z,0
2017-08-01T01:58:29.172Z,0
2017-08-01T01:59:09.578Z,0
2017-08-01T01:59:49.979Z,0
2017-08-01T02:00:30.343Z,0
2017-08-01T02:01:10.791Z,0
2017-08-01T02:01:51.310Z,0
2017-08-01T02:02:31.685Z,0
2017-08-01T02:03:12.090Z,0
2017-08-01T02:03:52.484Z,0
2017-08-01T02:04:32.882Z,0
2017-08-01T02:05:13.349Z,0
2017-08-01T02:05:53.776Z,0
2017-08-01T02:06:34.261Z,0
2017-08-01T02:07:14.724Z,0
2017-08-01T02:07:55.135Z,0
2017-08-01T02:10:31.393Z,0
2017-08-01T02:11:12.522Z,0
2017-08-01T02:11:53.007Z,0
2017-08-01T02:12:33.371Z,0
2017-08-01T02:13:13.845Z,0
2017-08-01T02:13:54.303Z,0
2017-08-01T02:14:34.705Z,0
2017-08-01T02:15:15.141Z,0
2017-08-01T02:15:55.548Z,0
2017-08-01T02:16:35.996Z,0
2017-08-01T02:17:16.385Z,0
2017-08-01T02:17:56.826Z,0
2017-08-01T02:18:37.212Z,0
2017-08-01T02:19:17.628Z,0
2017-08-01T02:19:57.995Z,0
2017-08-01T02:20:38.535Z,0
2017-08-01T02:21:18.973Z,0
2017-08-01T02:21:59.384Z,0
2017-08-01T02:22:39.790Z,0
2017-08-01T02:23:20.187Z,0
2017-08-01T02:24:00.612Z,0
2017-08-01T02:24:41.006Z,0
2017-08-01T02:25:21.423Z,0
2017-08-01T02:26:01.875Z,0
2017-08-01T02:26:42.256Z,0
2017-08-01T02:27:22.629Z,0
2017-08-01T02:28:03.084Z,0
2017-08-01T02:28:43.538Z,0
2017-08-01T02:29:23.980Z,0
2017-08-01T02:31:57.642Z,0
2017-08-01T02:32:38.058Z,0
2017-08-01T02:33:18.467Z,0
2017-08-01T02:33:58.847Z,0
2017-08-01T02:34:39.287Z,0
2017-08-01T02:35:19.763Z,0
2017-08-01T02:36:00.200Z,0
2017-08-01T02:36:40.591Z,0
2017-08-01T02:37:21.095Z,0
2017-08-01T02:38:01.508Z,0
2017-08-01T02:38:41.846Z,0
2017-08-01T02:39:22.285Z,0
2017-08-01T02:40:02.651Z,0
2017-08-01T02:40:43.120Z,0
2017-08-01T02:41:23.634Z,0
2017-08-01T02:42:03.961Z,0
2017-08-01T02:42:44.342Z,0
2017-08-01T02:43:24.763Z,0
2017-08-01T02:44:05.165Z,0
2017-08-01T02:44:45.510Z,0
2017-08-01T02:45:26.105Z,0
2017-08-01T02:46:06.485Z,0
2017-08-01T02:46:46.943Z,0
2017-08-01T02:47:27.593Z,0
2017-08-01T02:48:08.122Z,0
2017-08-01T02:48:48.575Z,0
2017-08-01T02:49:28.900Z,0
2017-08-01T02:50:09.284Z,0
2017-08-01T02:50:49.815Z,0
2017-08-01T02:51:30.197Z,0
2017-08-01T02:52:10.623Z,0
2017-08-01T02:52:51.117Z,0
2017-08-01T02:53:31.509Z,0
2017-08-01T02:54:12.007Z,0
2017-08-01T02:54:52.427Z,0
2017-08-01T02:55:32.949Z,0
2017-08-01T02:56:13.349Z,0
2017-08-01T02:56:53.723Z,0
2017-08-01T02:57:34.112Z,0
2017-08-01T02:58:14.555Z,0
2017-08-01T02:58:54.955Z,0
2017-08-01T02:59:35.420Z,0
2017-08-01T03:00:15.789Z,0
2017-08-01T03:00:56.246Z,0
2017-08-01T03:01:36.668Z,0
2017-08-01T03:02:17.022Z,0
2017-08-01T03:02:58.593Z,0
2017-08-01T03:03:38.658Z,0
2017-08-01T03:04:19.062Z,0
2017-08-01T03:05:00.744Z,0
2017-08-01T03:05:40.994Z,0
2017-08-01T03:06:21.352Z,0
2017-08-01T03:07:01.826Z,0
2017-08-01T03:07:42.148Z,0
2017-08-01T03:08:22.585Z,0
2017-08-01T03:09:03.251Z,0
2017-08-01T03:09:43.670Z,0
2017-08-01T03:10:24.069Z,0
2017-08-01T03:11:05.096Z,0
2017-08-01T03:11:45.046Z,0
2017-08-01T03:12:25.502Z,0
2017-08-01T03:13:05.965Z,0
2017-08-01T03:13:46.518Z,0
2017-08-01T03:14:26.890Z,0
2017-08-01T03:15:07.345Z,0
2017-08-01T03:15:47.906Z,0
2017-08-01T03:16:28.198Z,0
2017-08-01T03:17:08.787Z,0
2017-08-01T03:17:49.037Z,0
2017-08-01T03:18:29.434Z,0
2017-08-01T03:19:09.889Z,0
2017-08-01T03:19:50.406Z,0
2017-08-01T03:20:30.763Z,0
2017-08-01T03:21:11.160Z,0
2017-08-01T03:21:51.629Z,0
2017-08-01T03:22:32.008Z,0
2017-08-01T03:23:12.457Z,0
2017-08-01T03:23:52.898Z,0
2017-08-01T03:24:33.249Z,0
2017-08-01T03:25:13.650Z,0
2017-08-01T03:31:07.260Z,0
2017-08-01T03:34:34.739Z,0
2017-08-01T03:35:17.437Z,0
2017-08-01T03:35:57.874Z,0
2017-08-01T03:36:38.462Z,0
2017-08-01T03:37:18.792Z,0
2017-08-01T03:37:59.233Z,0
2017-08-01T03:38:39.670Z,0
2017-08-01T03:39:20.053Z,0
2017-08-01T03:40:00.498Z,0
2017-08-01T03:40:40.836Z,0
2017-08-01T03:41:21.234Z,0
2017-08-01T03:42:01.685Z,0
2017-08-01T03:42:42.029Z,0
2017-08-01T03:43:22.465Z,0
2017-08-01T03:44:02.872Z,0
2017-08-01T03:44:43.718Z,0
2017-08-01T03:45:24.092Z,0
2017-08-01T03:46:04.696Z,0
2017-08-01T03:46:44.954Z,0
2017-08-01T03:47:25.312Z,0
2017-08-01T03:48:05.738Z,0
2017-08-01T03:48:46.222Z,0
2017-08-01T03:49:26.545Z,0
2017-08-01T03:50:07.076Z,0
2017-08-01T03:50:47.474Z,0
2017-08-01T03:51:27.923Z,0
2017-08-01T03:52:08.326Z,0
2017-08-01T03:52:48.953Z,0
2017-08-01T03:53:29.384Z,0
2017-08-01T03:54:09.733Z,0
2017-08-01T04:11:52.519Z,20
2017-08-01T04:12:32.956Z,20
2017-08-01T04:13:13.297Z,20
2017-08-01T04:13:53.688Z,25
2017-08-01T04:14:34.144Z,25
2017-08-01T04:15:14.476Z,25
2017-08-01T04:15:54.986Z,25
2017-08-01T04:16:35.327Z,25
2017-08-01T04:17:15.782Z,25
2017-08-01T04:17:56.146Z,25
2017-08-01T04:18:36.757Z,25
2017-08-01T04:19:17.235Z,25
2017-08-01T04:19:57.694Z,25
2017-08-01T04:20:38.153Z,25
2017-08-01T04:21:18.427Z,25
2017-08-01T04:21:58.875Z,25
2017-08-01T04:22:39.375Z,25
2017-08-01T04:23:19.704Z,25
2017-08-01T04:24:00.055Z,25
2017-08-01T04:24:40.591Z,30
2017-08-01T04:25:20.970Z,30
2017-08-01T04:26:01.508Z,30
2017-08-01T04:26:42.011Z,30
2017-08-01T04:27:22.310Z,35
2017-08-01T04:28:02.764Z,35
2017-08-01T04:28:43.096Z,35
2017-08-01T04:29:23.528Z,35
2017-08-01T04:30:03.932Z,35
2017-08-01T04:30:44.333Z,35
2017-08-01T04:31:24.717Z,35
2017-08-01T04:32:05.285Z,35
2017-08-01T04:32:45.697Z,35
2017-08-01T04:33:26.116Z,35
2017-08-01T04:34:06.484Z,40
2017-08-01T04:34:46.887Z,40
2017-08-01T04:35:27.587Z,40
2017-08-01T04:36:07.960Z,40
2017-08-01T04:36:48.295Z,40
2017-08-01T04:37:28.724Z,40
2017-08-01T04:38:09.182Z,40
2017-08-01T04:38:49.751Z,40
2017-08-01T04:39:30.167Z,45
2017-08-01T04:40:10.709Z,45
2017-08-01T04:40:51.247Z,45
2017-08-01T04:41:31.647Z,45
2017-08-01T04:42:12.153Z,45
2017-08-01T04:42:52.569Z,45
2017-08-01T04:43:32.982Z,45
2017-08-01T04:44:13.390Z,50
2017-08-01T04:44:53.781Z,50
2017-08-01T04:45:34.871Z,50
2017-08-01T04:46:15.411Z,50
2017-08-01T04:46:55.756Z,50
2017-08-01T04:47:36.156Z,50
2017-08-01T04:48:16.589Z,50
2017-08-01T04:48:57.002Z,50
2017-08-01T04:49:37.400Z,50
2017-08-01T04:50:17.787Z,50
2017-08-01T04:50:58.204Z,50
2017-08-01T04:51:38.686Z,55
2017-08-01T04:52:19.130Z,50
2017-08-01T04:52:59.578Z,50
2017-08-01T04:53:40.029Z,50
2017-08-01T04:54:20.548Z,50
2017-08-01T04:55:01.133Z,50
2017-08-01T04:55:41.386Z,50
2017-08-01T04:56:21.855Z,50
2017-08-01T04:57:02.176Z,45
2017-08-01T04:57:42.655Z,45
2017-08-01T04:58:23.357Z,45
2017-08-01T04:59:03.731Z,45
2017-08-01T04:59:44.271Z,45
2017-08-01T05:00:24.764Z,45
2017-08-01T05:01:04.984Z,45
2017-08-01T05:01:45.423Z,45
2017-08-01T05:02:25.958Z,45
2017-08-01T05:03:06.321Z,50
2017-08-01T05:03:47.156Z,50
2017-08-01T05:04:28.014Z,50
2017-08-01T05:05:08.771Z,50
2017-08-01T05:05:49.067Z,55
2017-08-01T05:06:29.567Z,55
2017-08-01T05:07:10.231Z,60
2017-08-01T05:07:50.917Z,60
2017-08-01T05:08:31.792Z,65
2017-08-01T05:09:12.759Z,65
2017-08-01T05:09:56.309Z,65
2017-08-01T05:10:33.890Z,65
2017-08-01T05:11:14.564Z,70
2017-08-01T05:11:55.423Z,65
2017-08-01T05:12:35.869Z,60
2017-08-01T05:13:16.971Z,65
2017-08-01T05:13:58.182Z,65
2017-08-01T05:14:39.037Z,70
2017-08-01T05:15:19.588Z,75
2017-08-01T05:16:00.342Z,75
2017-08-01T05:16:41.027Z,80
2017-08-01T05:17:21.984Z,80
2017-08-01T05:18:02.473Z,80
2017-08-01T05:18:42.986Z,80
2017-08-01T05:19:23.508Z,80
2017-08-01T05:20:04.012Z,80
2017-08-01T05:20:44.467Z,80
2017-08-01T05:21:24.951Z,80
2017-08-01T05:30:59.724Z,130
2017-08-01T05:31:41.902Z,125
2017-08-01T05:32:22.301Z,120
2017-08-01T05:33:02.726Z,115
2017-08-01T05:33:43.182Z,115
2017-08-01T05:34:23.602Z,115
2017-08-01T05:35:04.031Z,110
2017-08-01T05:35:44.479Z,110
2017-08-01T05:36:24.920Z,115
2017-08-01T05:37:05.348Z,120
2017-08-01T05:37:45.776Z,125
2017-08-01T05:38:26.241Z,125
2017-08-01T05:39:06.673Z,125
2017-08-01T05:39:47.103Z,125
2017-08-01T05:40:27.540Z,125
2017-08-01T05:41:07.933Z,125
2017-08-01T05:43:47.441Z,115
2017-08-01T05:44:27.784Z,115
2017-08-01T05:45:08.246Z,120
2017-08-01T05:45:48.683Z,130
2017-08-01T05:46:29.152Z,135
2017-08-01T05:47:09.588Z,135
2017-08-01T05:47:50.069Z,130
2017-08-01T05:48:30.503Z,130
2017-08-01T05:49:10.943Z,135
2017-08-01T05:49:51.386Z,150
2017-08-01T05:50:31.834Z,170
2017-08-01T05:51:12.267Z,150
2017-08-01T05:51:52.764Z,140
2017-08-01T05:52:33.180Z,150
2017-08-01T05:53:13.613Z,155
2017-08-01T05:53:54.223Z,170
2017-08-01T05:54:34.652Z,190
2017-08-01T05:55:15.124Z,205
2017-08-01T05:55:55.556Z,210
2017-08-01T05:56:35.995Z,225
2017-08-01T05:57:16.432Z,245
2017-08-01T05:57:56.873Z,260
2017-08-01T05:58:37.287Z,265
2017-08-01T05:59:17.766Z,260
2017-08-01T05:59:58.190Z,255
2017-08-01T06:00:38.570Z,240
2017-08-01T06:01:18.945Z,235
2017-08-01T06:01:59.398Z,240
2017-08-01T06:02:39.896Z,245
2017-08-01T06:03:20.277Z,245
2017-08-01T06:04:00.806Z,245
2017-08-01T06:04:41.348Z,245
2017-08-01T06:05:21.798Z,240
2017-08-01T06:06:02.254Z,245
2017-08-01T06:06:42.679Z,260
2017-08-01T06:07:23.060Z,270
2017-08-01T06:08:03.577Z,275
2017-08-01T06:08:43.978Z,275
2017-08-01T06:09:24.416Z,255
2017-08-01T06:10:04.765Z,235
2017-08-01T06:10:45.227Z,225
2017-08-01T06:11:25.619Z,220
2017-08-01T06:12:06.049Z,220
2017-08-01T06:12:46.513Z,220
2017-08-01T06:13:26.952Z,225
2017-08-01T06:14:07.395Z,230
2017-08-01T06:14:47.915Z,230
2017-08-01T06:15:28.420Z,230
2017-08-01T06:16:08.781Z,230
2017-08-01T06:18:23.031Z,215
2017-08-01T06:19:03.588Z,215
2017-08-01T06:19:44.217Z,200
2017-08-01T06:20:24.591Z,195
2017-08-01T06:21:04.993Z,190
2017-08-01T06:21:47.289Z,190
2017-08-01T06:22:27.762Z,185
2017-08-01T06:23:08.102Z,185
2017-08-01T06:23:48.599Z,190
2017-08-01T06:24:28.925Z,190
2017-08-01T06:25:09.336Z,190
2017-08-01T06:25:49.808Z,195
2017-08-01T06:26:30.255Z,200
2017-08-01T06:27:10.759Z,205
2017-08-01T06:27:51.098Z,215
2017-08-01T06:28:31.527Z,225
2017-08-01T06:29:11.995Z,235
2017-08-01T06:29:52.469Z,250
2017-08-01T06:30:32.799Z,270
2017-08-01T06:31:13.199Z,285
2017-08-01T06:31:53.698Z,295
2017-08-01T06:32:34.082Z,310
2017-08-01T06:33:14.451Z,330
2017-08-01T06:33:54.942Z,365
2017-08-01T06:34:35.321Z,385
2017-08-01T06:35:15.860Z,400
2017-08-01T06:35:56.213Z,400
2017-08-01T06:36:36.821Z,405
2017-08-01T06:37:17.338Z,415
2017-08-01T06:37:57.743Z,465
2017-08-01T06:38:38.265Z,460
2017-08-01T06:39:18.670Z,460
2017-08-01T06:39:59.084Z,495
2017-08-01T06:40:39.549Z,545
2017-08-01T06:41:19.936Z,535
2017-08-01T06:42:00.469Z,600
2017-08-01T06:42:40.955Z,555
2017-08-01T06:43:21.418Z,490
2017-08-01T06:44:01.914Z,475
2017-08-01T06:44:42.318Z,445
2017-08-01T06:45:22.812Z,425
2017-08-01T06:46:03.264Z,405
2017-08-01T06:46:43.778Z,385
2017-08-01T06:47:26.461Z,365
2017-08-01T06:48:06.880Z,355
2017-08-01T06:48:47.263Z,350
2017-08-01T06:49:27.728Z,340
2017-08-01T06:50:08.141Z,335
2017-08-01T06:50:48.541Z,325
2017-08-01T06:51:29.230Z,315
2017-08-01T06:52:09.988Z,310
2017-08-01T06:52:50.592Z,305
2017-08-01T06:53:31.014Z,305
2017-08-01T06:57:10.102Z,295
2017-08-01T06:57:50.658Z,300
2017-08-01T06:58:31.224Z,310
2017-08-01T06:59:11.893Z,320
2017-08-01T06:59:53.305Z,335
2017-08-01T07:00:33.648Z,350
2017-08-01T07:01:14.266Z,365
2017-08-01T07:01:54.775Z,370
2017-08-01T07:02:35.190Z,375
2017-08-01T07:03:16.186Z,380
2017-08-01T07:03:56.778Z,375
2017-08-01T07:04:37.660Z,375
2017-08-01T07:05:18.163Z,365
2017-08-01T07:05:59.710Z,360
2017-08-01T07:06:40.278Z,360
2017-08-01T07:07:21.102Z,360
2017-08-01T07:08:01.473Z,365
2017-08-01T07:08:42.675Z,380
2017-08-01T07:09:23.395Z,400
2017-08-01T07:10:04.118Z,405
2017-08-01T07:10:44.636Z,410
2017-08-01T07:11:25.253Z,405
2017-08-01T07:12:06.386Z,395
2017-08-01T07:25:41.934Z,240
2017-08-01T07:26:22.496Z,250
2017-08-01T07:27:02.984Z,255
2017-08-01T07:27:43.310Z,265
2017-08-01T07:32:17.224Z,305
2017-08-01T07:33:33.763Z,305
2017-08-01T07:38:10.607Z,245
2017-08-01T07:38:50.995Z,225
2017-08-01T07:39:31.549Z,205
2017-08-01T07:40:11.969Z,190
2017-08-01T07:40:52.407Z,175
2017-08-01T07:41:32.960Z,170
2017-08-01T07:42:13.394Z,160
2017-08-01T07:42:54.032Z,150
2017-08-01T07:43:34.494Z,145
2017-08-01T07:44:15.180Z,145
2017-08-01T07:44:55.507Z,145
2017-08-01T07:45:36.162Z,145
2017-08-01T07:46:16.707Z,145
2017-08-01T07:46:58.367Z,145
2017-08-01T07:47:37.916Z,140
2017-08-01T07:48:18.367Z,140
2017-08-01T07:48:58.809Z,140
2017-08-01T07:49:39.184Z,140
2017-08-01T07:51:59.618Z,150
2017-08-01T07:52:40.031Z,150
2017-08-01T07:53:20.692Z,155
2017-08-01T07:55:49.532Z,155
2017-08-01T07:56:29.984Z,160
2017-08-01T07:57:10.418Z,160
2017-08-01T07:57:50.870Z,160
2017-08-01T07:58:31.277Z,160
2017-08-01T07:59:11.774Z,155
2017-08-01T07:59:52.386Z,150
2017-08-01T08:00:33.489Z,145
2017-08-01T08:01:13.954Z,140
2017-08-01T08:01:56.163Z,130
2017-08-01T08:02:36.664Z,125
2017-08-01T08:03:17.125Z,125
2017-08-01T08:08:20.730Z,115
2017-08-01T08:09:16.227Z,120
2017-08-01T08:10:14.009Z,120
2017-08-01T08:11:13.432Z,125
2017-08-01T08:12:20.395Z,125
2017-08-01T08:13:32.307Z,125
2017-08-01T08:15:46.799Z,120
2017-08-01T08:18:42.545Z,125
2017-08-01T08:19:22.983Z,125
2017-08-01T08:20:04.548Z,125
2017-08-01T08:21:06.300Z,120
2017-08-01T08:21:46.935Z,120
2017-08-01T08:22:30.088Z,120
2017-08-01T08:23:10.540Z,120
2017-08-01T08:23:51.048Z,120
2017-08-01T08:24:31.503Z,115
2017-08-01T08:25:12.188Z,115
2017-08-01T08:25:53.297Z,115
2017-08-01T08:26:33.820Z,120
2017-08-01T08:27:14.261Z,120
2017-08-01T08:27:55.150Z,120
2017-08-01T08:28:35.325Z,125
2017-08-01T08:29:15.823Z,130
2017-08-01T08:29:56.234Z,130
2017-08-01T08:30:36.780Z,130
2017-08-01T08:31:17.198Z,135
2017-08-01T08:31:57.635Z,145
2017-08-01T08:32:38.087Z,150
2017-08-01T08:33:18.516Z,160
2017-08-01T08:33:59.035Z,175
2017-08-01T08:34:39.428Z,190
2017-08-01T08:35:19.861Z,200
2017-08-01T08:36:00.259Z,215
2017-08-01T08:36:40.769Z,230
2017-08-01T08:37:21.105Z,240
2017-08-01T08:38:01.778Z,255
2017-08-01T08:38:42.508Z,275
2017-08-01T08:39:23.013Z,295
2017-08-01T08:40:03.448Z,320
2017-08-01T08:40:43.828Z,360
2017-08-01T08:41:24.336Z,385
2017-08-01T08:42:04.884Z,410
2017-08-01T08:42:45.361Z,415
2017-08-01T08:43:25.676Z,400
2017-08-01T08:44:06.096Z,370
2017-08-01T08:44:46.514Z,330
2017-08-01T08:45:27.051Z,300
2017-08-01T08:46:07.390Z,275
2017-08-01T08:46:47.803Z,255
2017-08-01T08:47:28.312Z,245
2017-08-01T08:48:08.861Z,245
2017-08-01T08:48:49.387Z,250
2017-08-01T08:49:29.874Z,255
2017-08-01T08:50:10.564Z,250
2017-08-01T08:50:51.121Z,235
2017-08-01T08:51:31.639Z,225
2017-08-01T08:52:12.018Z,215
2017-08-01T08:52:52.503Z,215
2017-08-01T08:53:34.624Z,215
2017-08-01T08:54:15.136Z,225
2017-08-01T08:54:55.591Z,230
2017-08-01T08:55:36.334Z,240
2017-08-01T08:56:16.719Z,260
2017-08-01T08:56:57.139Z,300
2017-08-01T08:57:37.689Z,340
2017-08-01T08:58:18.101Z,400
2017-08-01T08:58:58.640Z,470
2017-08-01T08:59:39.219Z,525
2017-08-01T09:00:19.743Z,575
2017-08-01T09:01:00.173Z,635
2017-08-01T09:01:41.036Z,690
2017-08-01T09:02:22.681Z,775
2017-08-01T09:03:03.292Z,880
2017-08-01T09:03:44.209Z,1010
2017-08-01T09:04:24.661Z,1155
2017-08-01T09:05:05.112Z,1220
2017-08-01T09:05:45.687Z,1300
2017-08-01T09:06:26.045Z,1165
2017-08-01T09:07:06.446Z,970
2017-08-01T09:07:46.901Z,805
2017-08-01T09:08:27.274Z,700
2017-08-01T09:09:07.719Z,635
2017-08-01T09:09:48.436Z,575
2017-08-01T09:10:28.743Z,550
2017-08-01T09:11:10.061Z,540
2017-08-01T09:11:50.445Z,530
2017-08-01T09:12:31.124Z,500
2017-08-01T09:13:11.604Z,490
2017-08-01T09:13:52.255Z,485
2017-08-01T09:14:32.761Z,495
2017-08-01T09:15:13.429Z,485
2017-08-01T09:15:55.123Z,480
2017-08-01T09:16:35.339Z,480
2017-08-01T09:17:15.785Z,500
2017-08-01T09:17:56.453Z,545
2017-08-01T09:18:36.854Z,610
2017-08-01T09:19:17.264Z,765
2017-08-01T09:19:57.832Z,715
2017-08-01T09:20:38.234Z,700
2017-08-01T09:21:18.808Z,695
2017-08-01T09:21:59.293Z,695
2017-08-01T09:22:39.757Z,700
2017-08-01T09:23:20.183Z,765
2017-08-01T09:24:00.647Z,900
2017-08-01T09:24:41.174Z,1015
2017-08-01T09:25:21.575Z,965
2017-08-01T09:26:02.113Z,920
2017-08-01T09:26:42.661Z,880
2017-08-01T09:27:23.103Z,1160
2017-08-01T09:28:03.787Z,1390
2017-08-01T09:28:44.185Z,1260
2017-08-01T09:29:24.582Z,1125
2017-08-01T09:30:05.215Z,1035
2017-08-01T09:30:45.562Z,995
2017-08-01T09:31:26.071Z,1040
2017-08-01T09:32:06.546Z,1060
2017-08-01T09:32:46.864Z,1155
2017-08-01T09:33:27.422Z,1080
2017-08-01T09:34:07.861Z,1195
2017-08-01T09:34:48.263Z,1095
2017-08-01T09:35:28.688Z,1125
2017-08-01T09:36:09.168Z,1130
2017-08-01T09:36:49.627Z,975
2017-08-01T09:37:30.059Z,905
2017-08-01T09:38:10.503Z,935
2017-08-01T09:38:50.832Z,915
2017-08-01T09:39:31.293Z,945
2017-08-01T09:40:11.884Z,1020
2017-08-01T09:40:52.283Z,1075
2017-08-01T09:41:32.658Z,1290
2017-08-01T09:42:13.109Z,1280
2017-08-01T09:42:53.640Z,1220
2017-08-01T09:43:34.110Z,1260
2017-08-01T09:44:14.554Z,1335
2017-08-01T09:44:55.071Z,1320
2017-08-01T09:45:35.552Z,1565
2017-08-01T09:46:16.108Z,1555
2017-08-01T09:46:56.438Z,1700
2017-08-01T09:47:36.877Z,1850
2017-08-01T09:48:17.587Z,1635
2017-08-01T09:48:57.980Z,1535
2017-08-01T09:49:38.375Z,1510
2017-08-01T09:50:18.819Z,1450
2017-08-01T09:50:59.216Z,1550
2017-08-01T09:51:39.673Z,1590
2017-08-01T09:52:20.103Z,1480
2017-08-01T09:53:00.464Z,1610
2017-08-01T09:53:40.897Z,1280
2017-08-01T09:54:21.319Z,1250
2017-08-01T09:55:01.710Z,1090
2017-08-01T09:55:42.140Z,1005
2017-08-01T09:56:22.544Z,995
2017-08-01T09:57:02.922Z,1025
2017-08-01T09:57:43.449Z,1120
2017-08-01T09:58:23.821Z,1285
2017-08-01T10:00:55.385Z,1150
2017-08-01T10:01:35.753Z,1115
2017-08-01T10:02:16.230Z,1200
2017-08-01T10:02:56.732Z,1335
2017-08-01T10:03:37.268Z,1375
2017-08-01T10:04:17.678Z,1365
2017-08-01T10:04:58.194Z,1405
2017-08-01T10:05:38.546Z,1460
2017-08-01T10:06:19.028Z,1525
2017-08-01T10:06:59.366Z,1615
2017-08-01T10:07:39.854Z,1635
2017-08-01T10:08:20.425Z,1595
2017-08-01T10:09:00.864Z,1815
2017-08-01T10:09:41.311Z,1720
2017-08-01T10:10:21.902Z,1825
2017-08-01T10:11:02.416Z,1550
2017-08-01T10:11:42.819Z,1805
2017-08-01T10:12:23.424Z,1585
2017-08-01T10:13:03.742Z,1260
2017-08-01T10:13:44.125Z,1080
2017-08-01T10:14:24.872Z,1025
2017-08-01T10:15:05.050Z,925
2017-08-01T10:15:45.750Z,865
2017-08-01T10:16:25.900Z,860
2017-08-01T10:17:06.621Z,800
2017-08-01T10:17:46.913Z,785
2017-08-01T10:18:27.365Z,835
2017-08-01T10:20:46.358Z,1355
2017-08-01T10:21:26.771Z,1380
2017-08-01T10:22:07.275Z,1245
2017-08-01T10:22:47.815Z,1200
2017-08-01T10:23:28.226Z,1295
2017-08-01T10:24:08.750Z,1570
2017-08-01T10:28:29.363Z,925
2017-08-01T10:29:10.267Z,750
2017-08-01T10:29:50.921Z,675
2017-08-01T10:30:31.369Z,650
2017-08-01T10:31:11.831Z,670
2017-08-01T10:31:52.290Z,740
2017-08-01T10:32:32.695Z,760
2017-08-01T10:33:13.167Z,755
2017-08-01T10:33:53.580Z,790
2017-08-01T10:34:33.967Z,815
2017-08-01T10:35:14.425Z,805
2017-08-01T10:35:54.845Z,835
2017-08-01T10:36:35.203Z,890
2017-08-01T10:37:15.759Z,910
2017-08-01T10:37:56.244Z,840
2017-08-01T10:38:36.673Z,785
2017-08-01T10:39:17.090Z,820
2017-08-01T10:39:57.499Z,885
2017-08-01T10:40:38.020Z,975
2017-08-01T10:41:18.363Z,995
2017-08-01T10:41:58.690Z,915
2017-08-01T10:42:39.153Z,790
2017-08-01T10:43:19.688Z,755
2017-08-01T10:47:31.079Z,1155
2017-08-01T10:48:11.521Z,1240
2017-08-01T10:48:51.906Z,1130
2017-08-01T10:49:32.386Z,1215
2017-08-01T10:50:12.891Z,1410
2017-08-01T10:50:53.471Z,1470
2017-08-01T10:51:33.977Z,1360
2017-08-01T10:52:14.356Z,1385
2017-08-01T10:52:54.781Z,1465
2017-08-01T10:53:35.320Z,1230
2017-08-01T10:54:15.919Z,1025
2017-08-01T10:54:56.405Z,820
2017-08-01T10:55:36.879Z,785
2017-08-01T10:56:17.346Z,745
2017-08-01T10:56:57.840Z,750
2017-08-01T10:57:38.424Z,740
2017-08-01T10:58:18.862Z,720
2017-08-01T10:58:59.290Z,695
2017-08-01T10:59:39.966Z,670
2017-08-01T11:00:20.305Z,665
2017-08-01T11:01:00.740Z,655
2017-08-01T11:01:41.194Z,665
2017-08-01T11:02:21.624Z,695
2017-08-01T11:03:02.842Z,760
2017-08-01T11:03:43.237Z,775
2017-08-01T11:06:03.373Z,700
2017-08-01T11:16:42.412Z,425
2017-08-01T11:17:22.892Z,415
2017-08-01T11:18:03.290Z,405
2017-08-01T11:18:43.768Z,380
2017-08-01T11:19:24.447Z,350
2017-08-01T11:20:05.211Z,340
2017-08-01T11:20:45.728Z,335